createdAt,value
2018-07-24T00:00:21.536Z,12.53
2018-07-24T00:02:49.936Z,14.07
2018-07-24T00:05:18.300Z,13.13
2018-07-24T00:07:46.697Z,13.80
2018-07-24T00:10:15.083Z,14.70
2018-07-24T00:12:43.435Z,13.90
2018-07-24T00:15:11.822Z,13.80
2018-07-24T00:17:40.254Z,15.10
2018-07-24T00:20:08.815Z,14.75
2018-07-24T00:22:37.244Z,14.03
2018-07-24T00:25:06.039Z,12.46
2018-07-24T00:27:40.483Z,15.83
2018-07-24T00:30:08.896Z,13.85
2018-07-24T00:32:37.257Z,12.73
2018-07-24T00:35:06.130Z,14.24
2018-07-24T00:37:34.569Z,15.38
2018-07-24T00:40:02.695Z,15.23
2018-07-24T00:42:34.076Z,14.75
2018-07-24T00:45:02.513Z,14.58
2018-07-24T00:47:30.565Z,15.00
2018-07-24T00:49:58.901Z,14.73
2018-07-24T00:52:27.335Z,15.35
2018-07-24T00:54:55.716Z,17.17
2018-07-24T00:57:24.054Z,15.68
2018-07-24T00:59:52.447Z,15.08
2018-07-24T01:02:20.539Z,14.18
2018-07-24T01:04:48.939Z,15.50
2018-07-24T01:07:17.342Z,14.63
2018-07-24T01:09:45.920Z,14.28
2018-07-24T01:12:14.323Z,15.95
2018-07-24T01:14:42.729Z,14.38
2018-07-24T01:17:11.097Z,14.58
2018-07-24T01:19:39.206Z,14.73
2018-07-24T01:22:07.620Z,14.47
2018-07-24T01:24:39.863Z,13.93
2018-07-24T01:27:08.222Z,16.53
2018-07-24T01:29:36.604Z,14.25
2018-07-24T01:32:05.014Z,13.95
2018-07-24T01:34:33.426Z,14.30
2018-07-24T01:37:01.985Z,14.83
2018-07-24T01:39:30.374Z,14.00
2018-07-24T01:41:58.751Z,14.85
2018-07-24T01:44:27.192Z,13.68
2018-07-24T01:46:55.550Z,14.13
2018-07-24T01:49:23.928Z,13.65
2018-07-24T01:51:52.339Z,13.75
2018-07-24T01:54:20.687Z,14.20
2018-07-24T01:56:49.026Z,14.98
2018-07-24T01:59:17.403Z,17.17
2018-07-24T02:01:45.743Z,17.52
2018-07-24T02:04:14.112Z,17.32
2018-07-24T02:06:42.535Z,18.50
2018-07-24T02:09:11.728Z,17.87
2018-07-24T02:11:40.290Z,19.97
2018-07-24T02:14:09.074Z,17.77
2018-07-24T02:16:37.467Z,15.70
2018-07-24T02:19:05.982Z,16.93
2018-07-24T02:21:34.397Z,19.25
2018-07-24T02:24:02.814Z,17.37
2018-07-24T02:26:31.180Z,16.05
2018-07-24T02:28:59.593Z,17.67
2018-07-24T02:31:27.973Z,14.95
2018-07-24T02:33:56.408Z,17.42
2018-07-24T02:36:24.810Z,16.62
2018-07-24T02:38:53.197Z,16.20
2018-07-24T02:41:21.595Z,19.97
2018-07-24T02:43:50.043Z,22.05
2018-07-24T02:46:18.509Z,18.65
2018-07-24T02:48:46.926Z,18.37
2018-07-24T02:51:15.332Z,18.35
2018-07-24T02:53:43.443Z,18.45
2018-07-24T02:56:11.890Z,18.50
2018-07-24T02:58:40.319Z,19.25
2018-07-24T03:01:08.702Z,18.92
2018-07-24T03:03:37.072Z,17.65
2018-07-24T03:06:05.606Z,18.35
2018-07-24T03:08:33.973Z,17.55
2018-07-24T03:11:02.341Z,22.13
2018-07-24T03:13:30.917Z,22.55
2018-07-24T03:15:59.277Z,21.43
2018-07-24T03:18:27.685Z,18.65
2018-07-24T03:20:56.139Z,17.87
2018-07-24T03:23:24.533Z,18.32
2018-07-24T03:25:52.930Z,18.48
2018-07-24T03:28:21.307Z,21.48
2018-07-24T03:30:49.680Z,18.55
2018-07-24T03:33:18.042Z,17.25
2018-07-24T03:35:46.444Z,17.02
2018-07-24T03:38:14.818Z,16.12
2018-07-24T03:40:43.189Z,17.48
2018-07-24T03:43:11.608Z,16.90
2018-07-24T03:45:39.991Z,16.67
2018-07-24T03:48:08.370Z,17.92
2018-07-24T03:50:36.780Z,16.95
2018-07-24T03:53:05.411Z,17.12
2018-07-24T03:55:33.508Z,18.48
2018-07-24T03:58:01.973Z,17.35
2018-07-24T04:00:30.304Z,16.40
2018-07-24T04:02:58.680Z,18.92
2018-07-24T04:05:27.103Z,19.27
2018-07-24T04:07:55.467Z,16.73
2018-07-24T04:10:23.808Z,16.57
2018-07-24T04:12:52.234Z,16.07
2018-07-24T04:15:20.604Z,14.93
2018-07-24T04:17:48.978Z,16.40
2018-07-24T04:20:17.381Z,16.70
2018-07-24T04:22:45.725Z,15.23
2018-07-24T04:25:14.103Z,15.43
2018-07-24T04:27:42.518Z,16.10
2018-07-24T04:30:10.626Z,19.12
2018-07-24T04:32:39.007Z,16.87
2018-07-24T04:35:07.403Z,16.42
2018-07-24T04:37:35.769Z,17.82
2018-07-24T04:40:04.570Z,17.25
2018-07-24T04:42:32.953Z,16.77
2018-07-24T04:45:01.363Z,17.57
2018-07-24T04:47:29.768Z,19.12
2018-07-24T04:49:58.215Z,17.98
2018-07-24T04:52:26.564Z,17.27
2018-07-24T04:54:54.947Z,17.35
2018-07-24T04:57:23.369Z,17.87
2018-07-24T04:59:51.742Z,19.25
2018-07-24T05:02:20.120Z,17.12
2018-07-24T05:04:48.505Z,17.07
2018-07-24T05:07:16.897Z,16.23
2018-07-24T05:09:44.976Z,17.45
2018-07-24T05:12:13.347Z,17.00
2018-07-24T05:14:41.720Z,16.87
2018-07-24T05:17:09.850Z,16.37
2018-07-24T05:19:38.308Z,18.02
2018-07-24T05:22:06.659Z,18.45
2018-07-24T05:24:35.027Z,15.70
2018-07-24T05:27:03.135Z,16.67
2018-07-24T05:29:31.521Z,15.53
2018-07-24T05:31:59.883Z,16.27
2018-07-24T05:34:28.305Z,15.93
2018-07-24T05:36:56.701Z,15.68
2018-07-24T05:39:25.075Z,18.12
2018-07-24T05:41:53.535Z,15.48
2018-07-24T05:44:21.927Z,15.95
2018-07-24T05:46:50.305Z,15.40
2018-07-24T05:49:18.698Z,17.82
2018-07-24T05:51:47.059Z,16.05
2018-07-24T05:54:15.436Z,15.43
2018-07-24T05:56:43.845Z,17.57
2018-07-24T05:59:12.078Z,16.12
2018-07-24T06:01:40.497Z,15.68
2018-07-24T06:04:08.645Z,17.57
2018-07-24T06:06:37.017Z,15.65
2018-07-24T06:09:07.026Z,15.45
2018-07-24T06:11:35.470Z,15.98
2018-07-24T06:14:03.916Z,15.45
2018-07-24T06:16:32.452Z,15.30
2018-07-24T06:19:00.886Z,14.83
2018-07-24T06:21:29.271Z,14.00
2018-07-24T06:23:57.637Z,15.55
2018-07-24T06:26:26.020Z,13.95
2018-07-24T06:28:54.397Z,14.15
2018-07-24T06:31:22.771Z,13.93
2018-07-24T06:33:51.186Z,13.85
2018-07-24T06:36:19.557Z,14.43
2018-07-24T06:38:47.948Z,13.90
2018-07-24T06:41:16.374Z,13.95
2018-07-24T06:43:44.806Z,12.85
2018-07-24T06:46:13.189Z,14.10
2018-07-24T06:48:41.616Z,12.63
2018-07-24T06:51:10.027Z,12.23
2018-07-24T06:53:38.372Z,12.45
2018-07-24T06:56:06.790Z,11.85
2018-07-24T06:58:34.872Z,10.32
2018-07-24T07:01:03.314Z,11.83
2018-07-24T07:03:31.847Z,11.40
2018-07-24T07:06:00.157Z,10.43
2018-07-24T07:08:28.554Z,10.00
2018-07-24T07:10:56.960Z,10.80
2018-07-24T07:13:25.453Z,10.93
2018-07-24T07:15:53.845Z,11.00
2018-07-24T07:18:22.266Z,10.58
2018-07-24T07:20:50.663Z,10.60
2018-07-24T07:23:18.809Z,10.15
2018-07-24T07:25:47.206Z,10.70
2018-07-24T07:28:15.589Z,9.93
2018-07-24T07:30:43.977Z,8.83
2018-07-24T07:33:12.436Z,9.70
2018-07-24T07:35:40.839Z,10.20
2018-07-24T07:38:09.241Z,10.18
2018-07-24T07:40:37.372Z,10.32
2018-07-24T07:43:05.780Z,10.08
2018-07-24T07:45:34.180Z,9.60
2018-07-24T07:48:02.631Z,8.55
2018-07-24T07:50:31.011Z,9.28
2018-07-24T07:52:59.508Z,8.65
2018-07-24T07:55:27.660Z,8.95
2018-07-24T07:57:55.845Z,8.50
2018-07-24T08:00:23.974Z,9.53
2018-07-24T08:02:52.884Z,8.50
2018-07-24T08:05:21.305Z,7.07
2018-07-24T08:07:49.682Z,8.47
2018-07-24T08:10:18.098Z,8.20
2018-07-24T08:12:46.536Z,8.00
2018-07-24T08:15:14.657Z,8.63
2018-07-24T08:17:43.101Z,7.78
2018-07-24T08:20:11.495Z,8.63
2018-07-24T08:22:39.884Z,8.73
2018-07-24T08:25:08.302Z,8.60
2018-07-24T08:27:36.721Z,6.55
2018-07-24T08:30:05.434Z,8.35
2018-07-24T08:32:33.872Z,8.13
2018-07-24T08:35:02.291Z,7.87
2018-07-24T08:37:30.668Z,7.78
2018-07-24T08:39:59.125Z,7.35
2018-07-24T08:42:27.524Z,6.60
2018-07-24T08:44:55.924Z,7.00
2018-07-24T08:47:24.396Z,6.03
2018-07-24T08:49:52.796Z,7.20
2018-07-24T08:52:21.215Z,6.65
2018-07-24T08:54:49.792Z,6.63
2018-07-24T08:57:17.990Z,5.58
2018-07-24T08:59:46.398Z,5.60
2018-07-24T09:02:14.845Z,5.05
2018-07-24T09:04:43.267Z,4.92
2018-07-24T09:07:11.646Z,5.62
2018-07-24T09:09:40.047Z,5.53
2018-07-24T09:12:08.471Z,5.20
2018-07-24T09:14:36.909Z,5.17
2018-07-24T09:17:05.353Z,4.35
2018-07-24T09:19:51.926Z,4.37
2018-07-24T09:22:20.379Z,4.87
2018-07-24T09:24:48.494Z,4.85
2018-07-24T09:27:16.881Z,4.75
2018-07-24T09:29:45.328Z,4.87
2018-07-24T09:32:13.498Z,5.10
2018-07-24T09:34:41.816Z,4.50
2018-07-24T09:37:10.264Z,4.97
2018-07-24T09:39:38.708Z,4.25
2018-07-24T09:42:07.082Z,4.55
2018-07-24T09:44:35.526Z,4.53
2018-07-24T09:47:58.550Z,4.77
2018-07-24T09:50:26.704Z,4.70
2018-07-24T09:52:55.119Z,4.35
2018-07-24T09:55:23.521Z,5.00
2018-07-24T09:57:51.953Z,4.65
2018-07-24T10:00:39.316Z,4.58
2018-07-24T10:03:07.737Z,4.55
2018-07-24T10:05:36.144Z,3.80
2018-07-24T10:08:04.265Z,4.75
2018-07-24T10:10:32.696Z,4.28
2018-07-24T10:13:00.963Z,4.80
2018-07-24T10:15:29.249Z,4.53
2018-07-24T10:17:57.401Z,4.30
2018-07-24T10:20:25.772Z,4.85
2018-07-24T10:22:54.165Z,4.37
2018-07-24T10:25:22.600Z,5.10
2018-07-24T10:27:51.031Z,4.67
2018-07-24T10:30:19.257Z,4.37
2018-07-24T10:32:47.651Z,4.80
2018-07-24T10:35:16.222Z,4.33
2018-07-24T10:37:44.995Z,4.67
2018-07-24T10:40:13.429Z,4.50
2018-07-24T10:42:41.901Z,4.90
2018-07-24T10:45:10.351Z,4.95
2018-07-24T10:47:38.788Z,5.10
2018-07-24T10:50:06.913Z,5.00
2018-07-24T10:52:35.361Z,4.83
2018-07-24T10:55:03.525Z,4.80
2018-07-24T10:57:31.676Z,5.17
2018-07-24T10:59:59.811Z,4.60
2018-07-24T11:02:28.619Z,4.60
2018-07-24T11:04:57.237Z,4.60
2018-07-24T11:07:25.373Z,5.03
2018-07-24T11:09:53.827Z,4.37
2018-07-24T11:12:22.403Z,5.03
2018-07-24T11:14:50.793Z,5.85
2018-07-24T11:17:19.586Z,4.35
2018-07-24T11:19:48.008Z,4.70
2018-07-24T11:22:16.464Z,4.62
2018-07-24T11:24:44.835Z,5.37
2018-07-24T11:27:13.227Z,4.80
2018-07-24T11:29:41.615Z,5.08
2018-07-24T11:32:10.056Z,4.90
2018-07-24T11:34:38.481Z,5.20
2018-07-24T11:37:06.887Z,4.67
2018-07-24T11:39:35.033Z,4.35
2018-07-24T11:42:03.489Z,4.65
2018-07-24T11:44:31.883Z,4.37
2018-07-24T11:47:00.324Z,4.67
2018-07-24T11:49:28.697Z,4.83
2018-07-24T11:51:57.244Z,4.17
2018-07-24T11:54:25.593Z,4.33
2018-07-24T11:56:57.189Z,4.67
2018-07-24T11:59:25.305Z,4.42
2018-07-24T12:01:53.726Z,4.83
2018-07-24T12:04:22.154Z,4.40
2018-07-24T12:06:50.541Z,4.37
2018-07-24T12:09:19.004Z,4.70
2018-07-24T12:11:47.431Z,5.17
2018-07-24T12:14:15.867Z,4.75
2018-07-24T12:16:44.311Z,4.30
2018-07-24T12:19:12.710Z,4.58
2018-07-24T12:21:41.133Z,4.83
2018-07-24T12:24:09.595Z,4.30
2018-07-24T12:26:38.012Z,4.30
2018-07-24T12:29:06.465Z,4.55
2018-07-24T12:31:34.898Z,5.00
2018-07-24T12:34:03.261Z,4.47
2018-07-24T12:36:31.654Z,5.80
2018-07-24T12:38:59.839Z,6.55
2018-07-24T12:41:27.954Z,6.90
2018-07-24T12:43:56.404Z,6.87
2018-07-24T12:46:24.842Z,7.58
2018-07-24T12:48:53.213Z,7.92
2018-07-24T12:51:21.625Z,7.45
2018-07-24T12:53:49.778Z,7.17
2018-07-24T12:56:18.219Z,8.03
2018-07-24T12:58:46.683Z,8.48
2018-07-24T13:01:15.053Z,8.53
2018-07-24T13:03:43.478Z,8.73
2018-07-24T13:06:11.861Z,9.35
2018-07-24T13:08:40.316Z,10.75
2018-07-24T13:11:08.856Z,10.55
2018-07-24T13:13:37.140Z,10.98
2018-07-24T13:16:05.593Z,11.65
2018-07-24T13:18:33.960Z,9.15
2018-07-24T13:21:02.383Z,8.85
2018-07-24T13:23:30.840Z,8.98
2018-07-24T13:25:58.945Z,8.30
2018-07-24T13:28:27.348Z,7.45
2018-07-24T13:30:55.803Z,6.83
2018-07-24T13:33:24.193Z,7.08
2018-07-24T13:35:52.601Z,6.30
2018-07-24T13:38:21.053Z,5.67
2018-07-24T13:40:49.171Z,5.58
2018-07-24T13:43:17.657Z,5.78
2018-07-24T13:45:46.098Z,6.23
2018-07-24T13:48:14.549Z,5.72
2018-07-24T13:50:42.669Z,5.80
2018-07-24T13:53:11.134Z,5.50
2018-07-24T13:55:39.595Z,6.00
2018-07-24T13:58:08.038Z,5.58
2018-07-24T14:00:38.169Z,5.40
2018-07-24T14:03:06.507Z,5.67
2018-07-24T14:05:34.944Z,5.70
2018-07-24T14:08:03.389Z,5.83
2018-07-24T14:10:31.782Z,5.40
2018-07-24T14:12:59.935Z,5.87
2018-07-24T14:15:28.383Z,5.35
2018-07-24T14:17:56.760Z,5.65
2018-07-24T14:20:25.205Z,5.58
2018-07-24T14:22:53.626Z,5.42
2018-07-24T14:25:22.006Z,5.47
2018-07-24T14:27:50.444Z,6.35
2018-07-24T14:30:18.545Z,6.67
2018-07-24T14:32:46.964Z,6.50
2018-07-24T14:35:15.527Z,11.75
2018-07-24T14:37:43.910Z,7.47
2018-07-24T14:40:12.313Z,7.30
2018-07-24T14:42:40.783Z,7.65
2018-07-24T14:45:09.148Z,10.08
2018-07-24T14:47:37.537Z,9.58
2018-07-24T14:50:06.285Z,10.02
2018-07-24T14:52:34.671Z,10.70
2018-07-24T14:55:06.239Z,10.72
2018-07-24T14:57:34.649Z,11.18
2018-07-24T15:00:03.052Z,11.20
2018-07-24T15:02:31.246Z,11.68
2018-07-24T15:04:59.403Z,11.90
2018-07-24T15:07:27.769Z,11.53
2018-07-24T15:09:56.188Z,11.88
2018-07-24T15:12:24.639Z,13.00
2018-07-24T15:14:52.766Z,12.73
2018-07-24T15:17:21.169Z,12.65
2018-07-24T15:19:49.629Z,13.65
2018-07-24T15:22:18.042Z,12.77
2018-07-24T15:24:46.482Z,11.35
2018-07-24T15:27:15.046Z,11.12
2018-07-24T15:29:43.464Z,10.78
2018-07-24T15:32:11.886Z,10.45
2018-07-24T15:34:40.070Z,10.35
2018-07-24T15:37:08.476Z,10.38
2018-07-24T15:39:36.904Z,10.98
2018-07-24T15:42:05.230Z,10.95
2018-07-24T15:44:33.626Z,11.12
2018-07-24T15:47:02.061Z,11.12
2018-07-24T15:49:30.445Z,10.32
2018-07-24T15:51:58.835Z,10.98
2018-07-24T15:54:27.215Z,31.77
2018-07-24T15:56:58.113Z,11.95
2018-07-24T15:59:26.247Z,10.00
2018-07-24T16:01:54.682Z,9.50
2018-07-24T16:04:22.835Z,8.80
2018-07-24T16:06:51.190Z,8.40
2018-07-24T16:09:19.598Z,8.10
2018-07-24T16:11:47.789Z,7.92
2018-07-24T16:14:17.512Z,7.83
2018-07-24T16:16:45.911Z,8.03
2018-07-24T16:19:14.359Z,6.78
2018-07-24T16:21:42.450Z,6.72
2018-07-24T16:24:10.856Z,7.05
2018-07-24T16:26:39.340Z,6.80
2018-07-24T16:29:07.747Z,6.95
2018-07-24T16:31:36.163Z,7.03
2018-07-24T16:34:04.613Z,7.03
2018-07-24T16:36:33.055Z,6.58
2018-07-24T16:39:01.458Z,8.30
2018-07-24T16:41:29.915Z,6.95
2018-07-24T16:43:58.380Z,9.48
2018-07-24T16:46:26.721Z,6.40
2018-07-24T16:48:54.860Z,6.25
2018-07-24T16:51:23.246Z,7.03
2018-07-24T16:53:51.646Z,6.65
2018-07-24T16:56:20.122Z,6.63
2018-07-24T16:58:48.492Z,6.42
2018-07-24T17:01:16.893Z,6.53
2018-07-24T17:03:45.052Z,6.35
2018-07-24T17:06:13.438Z,6.00
2018-07-24T17:08:41.549Z,6.28
2018-07-24T17:11:10.022Z,6.08
2018-07-24T17:13:38.518Z,6.50
2018-07-24T17:16:06.889Z,7.08
2018-07-24T17:18:35.358Z,7.47
2018-07-24T17:21:03.826Z,6.20
2018-07-24T17:23:31.936Z,6.22
2018-07-24T17:26:00.384Z,6.45
2018-07-24T17:28:28.849Z,6.58
2018-07-24T17:30:57.240Z,20.27
2018-07-24T17:33:25.383Z,7.78
2018-07-24T17:35:53.802Z,7.90
2018-07-24T17:38:21.912Z,6.80
2018-07-24T17:40:50.359Z,6.00
2018-07-24T17:43:18.776Z,6.25
2018-07-24T17:45:47.201Z,6.10
2018-07-24T17:48:15.682Z,6.40
2018-07-24T17:50:44.075Z,5.55
2018-07-24T17:53:12.534Z,5.67
2018-07-24T17:55:40.959Z,5.77
2018-07-24T17:58:09.333Z,5.47
2018-07-24T18:00:37.758Z,6.00
2018-07-24T18:03:06.237Z,5.72
2018-07-24T18:05:34.660Z,5.47
2018-07-24T18:08:03.100Z,6.20
2018-07-24T18:10:31.555Z,5.40
2018-07-24T18:13:00.043Z,5.45
2018-07-24T18:15:28.528Z,5.15
2018-07-24T18:17:56.934Z,5.28
2018-07-24T18:20:25.368Z,5.03
2018-07-24T18:22:53.779Z,5.03
2018-07-24T18:25:22.267Z,5.00
2018-07-24T18:27:50.947Z,4.80
2018-07-24T18:30:19.215Z,4.53
2018-07-24T18:32:47.671Z,4.70
2018-07-24T18:35:16.083Z,4.60
2018-07-24T18:37:47.622Z,4.60
2018-07-24T18:40:16.076Z,5.10
2018-07-24T18:42:55.196Z,4.28
2018-07-24T18:45:22.378Z,5.12
2018-07-24T18:47:58.359Z,4.58
2018-07-24T18:50:30.406Z,4.60
2018-07-24T18:53:01.568Z,8.70
2018-07-24T18:55:31.871Z,7.33
2018-07-24T18:58:00.382Z,4.92
2018-07-24T19:00:31.740Z,5.50
2018-07-24T19:02:59.438Z,4.40
2018-07-24T19:05:28.664Z,4.72
2018-07-24T19:07:57.718Z,4.42
2018-07-24T19:10:26.732Z,4.35
2018-07-24T19:12:55.214Z,4.40
2018-07-24T19:15:25.400Z,4.45
2018-07-24T19:17:53.578Z,4.30
2018-07-24T19:20:22.080Z,4.03
2018-07-24T19:22:50.585Z,4.25
2018-07-24T19:25:19.016Z,4.27
2018-07-24T19:27:48.436Z,4.12
2018-07-24T19:30:17.168Z,4.27
2018-07-24T19:32:47.470Z,4.62
2018-07-24T19:35:16.442Z,4.63
2018-07-24T19:37:45.212Z,4.70
2018-07-24T19:40:13.585Z,4.42
2018-07-24T19:42:41.956Z,4.08
2018-07-24T19:45:10.538Z,17.60
2018-07-24T19:47:39.518Z,4.20
2018-07-24T19:50:08.498Z,4.62
2018-07-24T19:52:37.089Z,4.53
2018-07-24T19:55:06.043Z,4.85
2018-07-24T19:57:34.695Z,4.95
2018-07-24T20:00:03.963Z,4.47
2018-07-24T20:02:32.298Z,4.47
2018-07-24T20:05:00.943Z,4.58
2018-07-24T20:07:31.932Z,4.50
2018-07-24T20:10:00.046Z,4.30
2018-07-24T20:12:28.675Z,4.90
2018-07-24T20:14:58.006Z,5.05
2018-07-24T20:17:27.238Z,4.58
2018-07-24T20:19:58.216Z,4.28
2018-07-24T20:22:28.294Z,4.25
2018-07-24T20:24:56.196Z,4.80
2018-07-24T20:27:24.502Z,4.50
2018-07-24T20:29:56.665Z,4.83
2018-07-24T20:32:25.711Z,4.58
2018-07-24T20:34:54.302Z,4.42
2018-07-24T20:37:24.990Z,4.67
2018-07-24T20:39:53.456Z,4.33
2018-07-24T20:42:21.968Z,5.17
2018-07-24T20:44:50.860Z,4.87
2018-07-24T20:47:19.285Z,4.70
2018-07-24T20:49:47.464Z,5.17
2018-07-24T20:52:15.940Z,5.12
2018-07-24T20:54:44.320Z,4.78
2018-07-24T20:57:12.845Z,5.30
2018-07-24T20:59:41.234Z,5.17
2018-07-24T21:02:09.724Z,4.70
2018-07-24T21:04:38.199Z,4.95
2018-07-24T21:07:06.692Z,4.58
2018-07-24T21:09:35.127Z,5.05
2018-07-24T21:12:03.216Z,4.97
2018-07-24T21:14:31.628Z,4.50
2018-07-24T21:17:00.036Z,4.67
2018-07-24T21:19:28.222Z,5.10
2018-07-24T21:21:56.653Z,4.60
2018-07-24T21:24:25.050Z,5.37
2018-07-24T21:26:53.523Z,4.70
2018-07-24T21:29:21.899Z,4.83
2018-07-24T21:31:50.270Z,5.10
2018-07-24T21:34:18.715Z,5.17
2018-07-24T21:36:47.094Z,4.30
2018-07-24T21:39:15.494Z,4.90
2018-07-24T21:41:43.986Z,4.80
2018-07-24T21:44:12.394Z,4.33
2018-07-24T21:46:40.509Z,5.05
2018-07-24T21:49:08.976Z,5.15
2018-07-24T21:51:37.033Z,4.90
2018-07-24T21:54:05.421Z,5.08
2018-07-24T21:56:34.748Z,5.50
2018-07-24T21:59:03.202Z,5.22
2018-07-24T22:01:31.601Z,5.30
2018-07-24T22:04:00.039Z,5.10
2018-07-24T22:06:28.136Z,5.50
2018-07-24T22:08:56.570Z,5.60
2018-07-24T22:11:24.990Z,5.00
2018-07-24T22:13:53.371Z,5.80
2018-07-24T22:16:21.805Z,5.47
2018-07-24T22:18:50.260Z,5.35
2018-07-24T22:21:18.671Z,6.17
2018-07-24T22:23:47.045Z,5.97
2018-07-24T22:26:15.492Z,5.35
2018-07-24T22:28:43.901Z,6.23
2018-07-24T22:31:12.333Z,6.45
2018-07-24T22:33:40.752Z,5.90
2018-07-24T22:36:09.186Z,5.55
2018-07-24T22:38:37.546Z,6.03
2018-07-24T22:41:05.686Z,6.05
2018-07-24T22:43:34.090Z,5.60
2018-07-24T22:46:02.198Z,7.20
2018-07-24T22:48:30.643Z,6.17
2018-07-24T22:50:58.772Z,6.42
2018-07-24T22:53:27.160Z,6.28
2018-07-24T22:55:55.575Z,7.83
2018-07-24T22:58:23.952Z,7.25
2018-07-24T23:00:52.092Z,6.83
2018-07-24T23:03:20.569Z,6.47
2018-07-24T23:05:48.990Z,7.60
2018-07-24T23:08:17.082Z,8.40
2018-07-24T23:10:45.532Z,7.50
2018-07-24T23:13:13.920Z,7.67
2018-07-24T23:15:42.317Z,8.53
2018-07-24T23:18:10.440Z,7.15
2018-07-24T23:20:41.787Z,7.75
2018-07-24T23:23:10.177Z,8.60
2018-07-24T23:25:38.576Z,9.43
2018-07-24T23:28:06.710Z,8.93
2018-07-24T23:30:35.106Z,8.80
2018-07-24T23:33:03.548Z,9.80
2018-07-24T23:35:31.930Z,10.23
2018-07-24T23:38:00.295Z,9.65
2018-07-24T23:40:28.672Z,10.68
2018-07-24T23:42:56.796Z,10.23
2018-07-24T23:45:25.166Z,10.77
2018-07-24T23:47:53.608Z,11.33
2018-07-24T23:50:22.014Z,13.13
2018-07-24T23:52:50.390Z,12.60
2018-07-24T23:55:34.345Z,12.70
2018-07-24T23:58:03.328Z,13.58
